sensor_id;sensor_type;location;lat;lon;timestamp;P1;durP1;ratioP1;P2;durP2;ratioP2
15246;SDS011;7726;48.820;9.248;2023-12-28T00:02:02;3.83;;;3.00;;
15246;SDS011;7726;48.820;9.248;2023-12-28T00:04:29;4.13;;;2.90;;
15246;SDS011;7726;48.820;9.248;2023-12-28T00:06:58;6.40;;;3.37;;
15246;SDS011;7726;48.820;9.248;2023-12-28T00:09:25;4.20;;;3.30;;
15246;SDS011;7726;48.820;9.248;2023-12-28T00:11:52;3.50;;;2.90;;
15246;SDS011;7726;48.820;9.248;2023-12-28T00:14:21;4.30;;;2.60;;
15246;SDS011;7726;48.820;9.248;2023-12-28T00:16:48;3.57;;;3.20;;
15246;SDS011;7726;48.820;9.248;2023-12-28T00:19:15;3.20;;;2.90;;
15246;SDS011;7726;48.820;9.248;2023-12-28T00:21:42;2.93;;;2.60;;
15246;SDS011;7726;48.820;9.248;2023-12-28T00:24:10;4.03;;;2.87;;
15246;SDS011;7726;48.820;9.248;2023-12-28T00:26:37;3.53;;;3.00;;
15246;SDS011;7726;48.820;9.248;2023-12-28T00:29:04;4.37;;;3.10;;
15246;SDS011;7726;48.820;9.248;2023-12-28T00:31:32;3.20;;;2.87;;
15246;SDS011;7726;48.820;9.248;2023-12-28T00:34:00;2.83;;;2.40;;
15246;SDS011;7726;48.820;9.248;2023-12-28T00:36:27;2.93;;;2.67;;
15246;SDS011;7726;48.820;9.248;2023-12-28T00:38:57;3.10;;;2.80;;
15246;SDS011;7726;48.820;9.248;2023-12-28T00:41:24;2.73;;;2.50;;
15246;SDS011;7726;48.820;9.248;2023-12-28T00:43:51;3.30;;;2.37;;
15246;SDS011;7726;48.820;9.248;2023-12-28T00:46:19;1.97;;;1.77;;
15246;SDS011;7726;48.820;9.248;2023-12-28T00:48:47;5.43;;;2.97;;
15246;SDS011;7726;48.820;9.248;2023-12-28T00:51:14;2.93;;;2.60;;
15246;SDS011;7726;48.820;9.248;2023-12-28T00:53:41;3.10;;;2.80;;
15246;SDS011;7726;48.820;9.248;2023-12-28T00:56:09;4.13;;;2.43;;
15246;SDS011;7726;48.820;9.248;2023-12-28T00:58:38;3.27;;;2.70;;
15246;SDS011;7726;48.820;9.248;2023-12-28T01:01:05;3.20;;;2.80;;
15246;SDS011;7726;48.820;9.248;2023-12-28T01:03:32;4.97;;;2.93;;
15246;SDS011;7726;48.820;9.248;2023-12-28T01:06:01;3.47;;;2.83;;
15246;SDS011;7726;48.820;9.248;2023-12-28T01:08:28;5.13;;;3.30;;
15246;SDS011;7726;48.820;9.248;2023-12-28T01:10:55;4.63;;;3.13;;
15246;SDS011;7726;48.820;9.248;2023-12-28T01:13:22;4.47;;;3.50;;
15246;SDS011;7726;48.820;9.248;2023-12-28T01:15:50;5.27;;;3.60;;
15246;SDS011;7726;48.820;9.248;2023-12-28T01:18:17;4.97;;;3.40;;
15246;SDS011;7726;48.820;9.248;2023-12-28T01:20:44;3.33;;;3.03;;
15246;SDS011;7726;48.820;9.248;2023-12-28T01:23:12;4.27;;;3.30;;
15246;SDS011;7726;48.820;9.248;2023-12-28T01:25:40;4.00;;;3.40;;
15246;SDS011;7726;48.820;9.248;2023-12-28T01:28:07;3.40;;;3.10;;
15246;SDS011;7726;48.820;9.248;2023-12-28T01:30:34;6.00;;;4.27;;
15246;SDS011;7726;48.820;9.248;2023-12-28T01:33:01;6.07;;;3.87;;
15246;SDS011;7726;48.820;9.248;2023-12-28T01:35:28;4.67;;;3.67;;
15246;SDS011;7726;48.820;9.248;2023-12-28T01:37:55;5.07;;;3.67;;
15246;SDS011;7726;48.820;9.248;2023-12-28T01:40:26;5.63;;;3.20;;
15246;SDS011;7726;48.820;9.248;2023-12-28T01:42:53;6.37;;;3.77;;
15246;SDS011;7726;48.820;9.248;2023-12-28T01:45:20;4.17;;;3.50;;
15246;SDS011;7726;48.820;9.248;2023-12-28T01:47:48;5.40;;;3.90;;
15246;SDS011;7726;48.820;9.248;2023-12-28T01:50:15;7.70;;;4.27;;
15246;SDS011;7726;48.820;9.248;2023-12-28T01:52:43;7.73;;;4.00;;
15246;SDS011;7726;48.820;9.248;2023-12-28T01:55:10;4.17;;;3.53;;
15246;SDS011;7726;48.820;9.248;2023-12-28T01:57:39;4.97;;;4.07;;
15246;SDS011;7726;48.820;9.248;2023-12-28T02:00:07;4.20;;;3.50;;
15246;SDS011;7726;48.820;9.248;2023-12-28T02:02:34;4.10;;;3.53;;
15246;SDS011;7726;48.820;9.248;2023-12-28T02:05:02;3.53;;;3.10;;
15246;SDS011;7726;48.820;9.248;2023-12-28T02:07:29;4.37;;;3.53;;
15246;SDS011;7726;48.820;9.248;2023-12-28T02:09:56;3.97;;;3.17;;
15246;SDS011;7726;48.820;9.248;2023-12-28T02:12:23;4.53;;;3.43;;
15246;SDS011;7726;48.820;9.248;2023-12-28T02:14:52;4.20;;;3.70;;
15246;SDS011;7726;48.820;9.248;2023-12-28T02:17:20;4.07;;;3.63;;
15246;SDS011;7726;48.820;9.248;2023-12-28T02:19:50;4.27;;;3.77;;
15246;SDS011;7726;48.820;9.248;2023-12-28T02:22:17;4.30;;;3.40;;
15246;SDS011;7726;48.820;9.248;2023-12-28T02:25:05;6.20;;;3.57;;
15246;SDS011;7726;48.820;9.248;2023-12-28T02:27:33;4.37;;;3.60;;
15246;SDS011;7726;48.820;9.248;2023-12-28T02:30:00;5.60;;;3.80;;
15246;SDS011;7726;48.820;9.248;2023-12-28T02:32:31;5.73;;;4.27;;
15246;SDS011;7726;48.820;9.248;2023-12-28T02:35:01;3.50;;;3.20;;
15246;SDS011;7726;48.820;9.248;2023-12-28T02:37:32;4.07;;;3.67;;
15246;SDS011;7726;48.820;9.248;2023-12-28T02:40:00;5.63;;;3.83;;
15246;SDS011;7726;48.820;9.248;2023-12-28T02:42:29;5.27;;;3.83;;
15246;SDS011;7726;48.820;9.248;2023-12-28T02:44:56;4.13;;;3.30;;
15246;SDS011;7726;48.820;9.248;2023-12-28T02:47:23;7.03;;;3.63;;
15246;SDS011;7726;48.820;9.248;2023-12-28T02:49:50;5.67;;;3.73;;
15246;SDS011;7726;48.820;9.248;2023-12-28T02:52:18;4.80;;;3.57;;
15246;SDS011;7726;48.820;9.248;2023-12-28T02:54:45;4.33;;;3.50;;
15246;SDS011;7726;48.820;9.248;2023-12-28T02:57:12;4.73;;;3.90;;
15246;SDS011;7726;48.820;9.248;2023-12-28T02:59:44;4.97;;;3.43;;
15246;SDS011;7726;48.820;9.248;2023-12-28T03:02:11;4.97;;;3.00;;
15246;SDS011;7726;48.820;9.248;2023-12-28T03:04:39;5.20;;;3.63;;
15246;SDS011;7726;48.820;9.248;2023-12-28T03:07:07;4.30;;;3.30;;
15246;SDS011;7726;48.820;9.248;2023-12-28T03:09:34;3.50;;;3.20;;
15246;SDS011;7726;48.820;9.248;2023-12-28T03:12:04;5.00;;;3.10;;
15246;SDS011;7726;48.820;9.248;2023-12-28T03:14:31;3.90;;;3.37;;
15246;SDS011;7726;48.820;9.248;2023-12-28T03:17:00;4.70;;;3.13;;
15246;SDS011;7726;48.820;9.248;2023-12-28T03:19:27;4.53;;;3.80;;
15246;SDS011;7726;48.820;9.248;2023-12-28T03:21:54;4.03;;;3.00;;
15246;SDS011;7726;48.820;9.248;2023-12-28T03:24:21;4.50;;;3.47;;
15246;SDS011;7726;48.820;9.248;2023-12-28T03:26:48;3.63;;;3.23;;
15246;SDS011;7726;48.820;9.248;2023-12-28T03:29:16;5.57;;;3.43;;
15246;SDS011;7726;48.820;9.248;2023-12-28T03:31:43;3.90;;;3.13;;
15246;SDS011;7726;48.820;9.248;2023-12-28T03:34:11;5.07;;;3.53;;
15246;SDS011;7726;48.820;9.248;2023-12-28T03:36:38;3.70;;;3.40;;
15246;SDS011;7726;48.820;9.248;2023-12-28T03:39:06;3.93;;;3.17;;
15246;SDS011;7726;48.820;9.248;2023-12-28T03:41:33;4.63;;;3.67;;
15246;SDS011;7726;48.820;9.248;2023-12-28T03:44:00;3.43;;;3.13;;
15246;SDS011;7726;48.820;9.248;2023-12-28T03:46:27;5.47;;;3.57;;
15246;SDS011;7726;48.820;9.248;2023-12-28T03:48:55;3.37;;;2.90;;
15246;SDS011;7726;48.820;9.248;2023-12-28T03:51:23;4.90;;;3.30;;
15246;SDS011;7726;48.820;9.248;2023-12-28T03:53:50;4.00;;;2.97;;
15246;SDS011;7726;48.820;9.248;2023-12-28T03:56:18;3.20;;;2.83;;
15246;SDS011;7726;48.820;9.248;2023-12-28T03:58:45;2.90;;;2.63;;
15246;SDS011;7726;48.820;9.248;2023-12-28T04:01:13;3.07;;;2.63;;
15246;SDS011;7726;48.820;9.248;2023-12-28T04:03:40;3.03;;;2.40;;
15246;SDS011;7726;48.820;9.248;2023-12-28T04:06:07;2.43;;;2.23;;
15246;SDS011;7726;48.820;9.248;2023-12-28T04:08:35;3.63;;;2.83;;
15246;SDS011;7726;48.820;9.248;2023-12-28T04:11:03;3.50;;;2.80;;
15246;SDS011;7726;48.820;9.248;2023-12-28T04:13:30;3.17;;;2.70;;
15246;SDS011;7726;48.820;9.248;2023-12-28T04:15:57;4.10;;;3.00;;
15246;SDS011;7726;48.820;9.248;2023-12-28T04:18:24;4.67;;;3.17;;
15246;SDS011;7726;48.820;9.248;2023-12-28T04:20:52;4.10;;;3.43;;
15246;SDS011;7726;48.820;9.248;2023-12-28T04:23:19;4.27;;;3.20;;
15246;SDS011;7726;48.820;9.248;2023-12-28T04:25:47;4.20;;;3.40;;
15246;SDS011;7726;48.820;9.248;2023-12-28T04:28:15;4.87;;;3.97;;
15246;SDS011;7726;48.820;9.248;2023-12-28T04:30:42;4.40;;;3.60;;
15246;SDS011;7726;48.820;9.248;2023-12-28T04:33:09;4.40;;;3.77;;
15246;SDS011;7726;48.820;9.248;2023-12-28T04:35:36;4.43;;;3.60;;
15246;SDS011;7726;48.820;9.248;2023-12-28T04:38:03;3.50;;;3.20;;
15246;SDS011;7726;48.820;9.248;2023-12-28T04:40:30;4.90;;;3.30;;
15246;SDS011;7726;48.820;9.248;2023-12-28T04:43:00;6.67;;;3.40;;
15246;SDS011;7726;48.820;9.248;2023-12-28T04:45:27;3.73;;;3.07;;
15246;SDS011;7726;48.820;9.248;2023-12-28T04:47:54;3.57;;;2.87;;
15246;SDS011;7726;48.820;9.248;2023-12-28T04:50:22;4.57;;;2.73;;
15246;SDS011;7726;48.820;9.248;2023-12-28T04:52:49;3.30;;;3.00;;
15246;SDS011;7726;48.820;9.248;2023-12-28T04:55:16;4.17;;;2.93;;
15246;SDS011;7726;48.820;9.248;2023-12-28T04:57:43;4.73;;;2.80;;
15246;SDS011;7726;48.820;9.248;2023-12-28T05:00:12;4.63;;;2.70;;
15246;SDS011;7726;48.820;9.248;2023-12-28T05:02:39;3.03;;;2.73;;
15246;SDS011;7726;48.820;9.248;2023-12-28T05:05:06;4.00;;;2.80;;
15246;SDS011;7726;48.820;9.248;2023-12-28T05:07:36;2.80;;;2.50;;
15246;SDS011;7726;48.820;9.248;2023-12-28T05:10:04;3.90;;;2.67;;
15246;SDS011;7726;48.820;9.248;2023-12-28T05:12:31;4.90;;;2.53;;
15246;SDS011;7726;48.820;9.248;2023-12-28T05:14:58;2.47;;;2.27;;
15246;SDS011;7726;48.820;9.248;2023-12-28T05:17:27;5.20;;;2.70;;
15246;SDS011;7726;48.820;9.248;2023-12-28T05:19:54;3.17;;;2.87;;
15246;SDS011;7726;48.820;9.248;2023-12-28T05:22:22;3.17;;;2.73;;
15246;SDS011;7726;48.820;9.248;2023-12-28T05:24:49;3.63;;;2.70;;
15246;SDS011;7726;48.820;9.248;2023-12-28T05:27:16;3.33;;;2.73;;
15246;SDS011;7726;48.820;9.248;2023-12-28T05:29:43;4.67;;;3.10;;
15246;SDS011;7726;48.820;9.248;2023-12-28T05:32:10;3.80;;;2.83;;
15246;SDS011;7726;48.820;9.248;2023-12-28T05:34:39;4.00;;;3.13;;
15246;SDS011;7726;48.820;9.248;2023-12-28T05:37:06;3.23;;;2.50;;
15246;SDS011;7726;48.820;9.248;2023-12-28T05:39:33;4.23;;;2.67;;
15246;SDS011;7726;48.820;9.248;2023-12-28T05:42:00;5.80;;;2.80;;
15246;SDS011;7726;48.820;9.248;2023-12-28T05:44:27;3.50;;;2.73;;
15246;SDS011;7726;48.820;9.248;2023-12-28T05:46:54;5.90;;;2.80;;
15246;SDS011;7726;48.820;9.248;2023-12-28T05:49:22;5.43;;;3.10;;
15246;SDS011;7726;48.820;9.248;2023-12-28T05:51:51;2.87;;;2.57;;
15246;SDS011;7726;48.820;9.248;2023-12-28T05:54:18;3.70;;;2.70;;
15246;SDS011;7726;48.820;9.248;2023-12-28T05:56:45;3.10;;;2.37;;
15246;SDS011;7726;48.820;9.248;2023-12-28T05:59:13;6.40;;;2.70;;
15246;SDS011;7726;48.820;9.248;2023-12-28T06:01:43;3.27;;;2.80;;
15246;SDS011;7726;48.820;9.248;2023-12-28T06:04:10;2.73;;;2.50;;
15246;SDS011;7726;48.820;9.248;2023-12-28T06:06:37;2.87;;;2.40;;
15246;SDS011;7726;48.820;9.248;2023-12-28T06:09:06;2.73;;;2.30;;
15246;SDS011;7726;48.820;9.248;2023-12-28T06:11:33;4.13;;;2.33;;
15246;SDS011;7726;48.820;9.248;2023-12-28T06:14:00;3.40;;;2.43;;
15246;SDS011;7726;48.820;9.248;2023-12-28T06:16:27;2.83;;;2.30;;
15246;SDS011;7726;48.820;9.248;2023-12-28T06:18:57;3.30;;;2.30;;
15246;SDS011;7726;48.820;9.248;2023-12-28T06:21:25;3.00;;;2.30;;
15246;SDS011;7726;48.820;9.248;2023-12-28T06:23:53;3.10;;;2.63;;
15246;SDS011;7726;48.820;9.248;2023-12-28T06:26:22;2.83;;;2.53;;
15246;SDS011;7726;48.820;9.248;2023-12-28T06:28:49;2.63;;;2.40;;
15246;SDS011;7726;48.820;9.248;2023-12-28T06:31:16;2.87;;;2.37;;
15246;SDS011;7726;48.820;9.248;2023-12-28T06:33:43;3.03;;;2.43;;
15246;SDS011;7726;48.820;9.248;2023-12-28T06:36:11;3.70;;;2.17;;
15246;SDS011;7726;48.820;9.248;2023-12-28T06:38:38;3.00;;;2.53;;
15246;SDS011;7726;48.820;9.248;2023-12-28T06:41:11;2.40;;;2.20;;
15246;SDS011;7726;48.820;9.248;2023-12-28T06:43:40;3.43;;;2.50;;
15246;SDS011;7726;48.820;9.248;2023-12-28T06:46:07;2.67;;;2.47;;
15246;SDS011;7726;48.820;9.248;2023-12-28T06:48:34;2.60;;;2.40;;
15246;SDS011;7726;48.820;9.248;2023-12-28T06:51:05;2.20;;;2.00;;
15246;SDS011;7726;48.820;9.248;2023-12-28T06:53:32;3.25;;;2.63;;
15246;SDS011;7726;48.820;9.248;2023-12-28T06:55:59;2.30;;;2.10;;
15246;SDS011;7726;48.820;9.248;2023-12-28T06:58:26;5.22;;;2.38;;
15246;SDS011;7726;48.820;9.248;2023-12-28T07:00:55;3.10;;;1.83;;
15246;SDS011;7726;48.820;9.248;2023-12-28T07:03:22;2.00;;;1.90;;
15246;SDS011;7726;48.820;9.248;2023-12-28T07:05:50;2.75;;;2.35;;
15246;SDS011;7726;48.820;9.248;2023-12-28T07:08:17;3.95;;;2.25;;
15246;SDS011;7726;48.820;9.248;2023-12-28T07:10:44;2.80;;;2.03;;
15246;SDS011;7726;48.820;9.248;2023-12-28T07:13:11;3.10;;;1.95;;
15246;SDS011;7726;48.820;9.248;2023-12-28T07:15:39;3.10;;;2.20;;
15246;SDS011;7726;48.820;9.248;2023-12-28T07:18:07;2.00;;;1.77;;
15246;SDS011;7726;48.820;9.248;2023-12-28T07:20:34;2.57;;;1.70;;
15246;SDS011;7726;48.820;9.248;2023-12-28T07:23:02;1.83;;;1.70;;
15246;SDS011;7726;48.820;9.248;2023-12-28T07:25:29;2.70;;;2.07;;
15246;SDS011;7726;48.820;9.248;2023-12-28T07:27:56;2.77;;;2.00;;
15246;SDS011;7726;48.820;9.248;2023-12-28T07:30:23;2.92;;;1.60;;
15246;SDS011;7726;48.820;9.248;2023-12-28T07:32:50;1.88;;;1.77;;
15246;SDS011;7726;48.820;9.248;2023-12-28T07:35:19;2.50;;;1.67;;
15246;SDS011;7726;48.820;9.248;2023-12-28T07:37:46;1.95;;;1.75;;
15246;SDS011;7726;48.820;9.248;2023-12-28T07:40:14;2.20;;;2.00;;
15246;SDS011;7726;48.820;9.248;2023-12-28T07:42:42;2.30;;;2.10;;
15246;SDS011;7726;48.820;9.248;2023-12-28T07:45:09;2.17;;;1.77;;
15246;SDS011;7726;48.820;9.248;2023-12-28T07:47:36;2.65;;;1.92;;
15246;SDS011;7726;48.820;9.248;2023-12-28T07:50:04;1.97;;;1.70;;
15246;SDS011;7726;48.820;9.248;2023-12-28T07:52:32;2.22;;;2.03;;
15246;SDS011;7726;48.820;9.248;2023-12-28T07:54:59;2.95;;;1.92;;
15246;SDS011;7726;48.820;9.248;2023-12-28T07:57:26;2.65;;;1.80;;
15246;SDS011;7726;48.820;9.248;2023-12-28T07:59:53;3.58;;;2.33;;
15246;SDS011;7726;48.820;9.248;2023-12-28T08:02:20;3.35;;;1.83;;
15246;SDS011;7726;48.820;9.248;2023-12-28T08:04:47;5.28;;;2.00;;
15246;SDS011;7726;48.820;9.248;2023-12-28T08:07:14;2.90;;;1.90;;
15246;SDS011;7726;48.820;9.248;2023-12-28T08:09:43;2.25;;;1.92;;
15246;SDS011;7726;48.820;9.248;2023-12-28T08:12:10;1.88;;;1.70;;
15246;SDS011;7726;48.820;9.248;2023-12-28T08:14:37;2.85;;;1.67;;
15246;SDS011;7726;48.820;9.248;2023-12-28T08:17:04;1.40;;;1.30;;
15246;SDS011;7726;48.820;9.248;2023-12-28T08:19:33;1.77;;;1.67;;
15246;SDS011;7726;48.820;9.248;2023-12-28T08:22:00;2.90;;;1.65;;
15246;SDS011;7726;48.820;9.248;2023-12-28T08:24:27;1.50;;;1.40;;
15246;SDS011;7726;48.820;9.248;2023-12-28T08:26:56;2.53;;;1.90;;
15246;SDS011;7726;48.820;9.248;2023-12-28T08:29:24;2.83;;;2.33;;
15246;SDS011;7726;48.820;9.248;2023-12-28T08:31:52;3.05;;;1.58;;
15246;SDS011;7726;48.820;9.248;2023-12-28T08:34:20;4.25;;;2.00;;
15246;SDS011;7726;48.820;9.248;2023-12-28T08:36:47;5.25;;;2.20;;
15246;SDS011;7726;48.820;9.248;2023-12-28T08:39:14;2.13;;;1.80;;
15246;SDS011;7726;48.820;9.248;2023-12-28T08:41:42;5.60;;;2.47;;
15246;SDS011;7726;48.820;9.248;2023-12-28T08:44:10;2.92;;;2.63;;
15246;SDS011;7726;48.820;9.248;2023-12-28T08:46:37;5.00;;;2.25;;
15246;SDS011;7726;48.820;9.248;2023-12-28T08:49:04;4.30;;;2.05;;
15246;SDS011;7726;48.820;9.248;2023-12-28T08:51:32;5.78;;;2.53;;
15246;SDS011;7726;48.820;9.248;2023-12-28T08:53:59;3.67;;;2.10;;
15246;SDS011;7726;48.820;9.248;2023-12-28T08:56:26;3.30;;;2.65;;
15246;SDS011;7726;48.820;9.248;2023-12-28T08:58:53;4.25;;;2.78;;
15246;SDS011;7726;48.820;9.248;2023-12-28T09:01:22;4.47;;;2.90;;
15246;SDS011;7726;48.820;9.248;2023-12-28T09:03:50;3.03;;;2.70;;
15246;SDS011;7726;48.820;9.248;2023-12-28T09:06:17;3.45;;;2.60;;
15246;SDS011;7726;48.820;9.248;2023-12-28T09:08:45;3.10;;;2.60;;
15246;SDS011;7726;48.820;9.248;2023-12-28T09:11:13;5.35;;;2.47;;
15246;SDS011;7726;48.820;9.248;2023-12-28T09:13:40;3.20;;;2.80;;
15246;SDS011;7726;48.820;9.248;2023-12-28T09:16:09;4.80;;;3.40;;
15246;SDS011;7726;48.820;9.248;2023-12-28T09:18:37;4.07;;;3.30;;
15246;SDS011;7726;48.820;9.248;2023-12-28T09:21:05;3.80;;;3.25;;
15246;SDS011;7726;48.820;9.248;2023-12-28T09:23:32;3.63;;;3.00;;
15246;SDS011;7726;48.820;9.248;2023-12-28T09:26:00;3.45;;;3.15;;
15246;SDS011;7726;48.820;9.248;2023-12-28T09:28:28;3.47;;;2.78;;
15246;SDS011;7726;48.820;9.248;2023-12-28T09:30:55;3.20;;;2.72;;
15246;SDS011;7726;48.820;9.248;2023-12-28T09:33:22;3.95;;;3.03;;
15246;SDS011;7726;48.820;9.248;2023-12-28T09:35:51;3.63;;;2.80;;
15246;SDS011;7726;48.820;9.248;2023-12-28T09:38:19;3.88;;;3.03;;
15246;SDS011;7726;48.820;9.248;2023-12-28T09:40:46;4.50;;;3.30;;
15246;SDS011;7726;48.820;9.248;2023-12-28T09:43:15;4.07;;;3.60;;
15246;SDS011;7726;48.820;9.248;2023-12-28T09:45:45;5.88;;;4.05;;
15246;SDS011;7726;48.820;9.248;2023-12-28T09:48:13;4.40;;;3.70;;
15246;SDS011;7726;48.820;9.248;2023-12-28T09:50:42;6.80;;;4.38;;
15246;SDS011;7726;48.820;9.248;2023-12-28T09:53:11;6.47;;;4.28;;
15246;SDS011;7726;48.820;9.248;2023-12-28T09:55:39;7.13;;;4.27;;
15246;SDS011;7726;48.820;9.248;2023-12-28T09:58:06;4.65;;;4.15;;
15246;SDS011;7726;48.820;9.248;2023-12-28T10:00:33;9.07;;;4.30;;
15246;SDS011;7726;48.820;9.248;2023-12-28T10:03:01;5.72;;;4.38;;
15246;SDS011;7726;48.820;9.248;2023-12-28T10:05:28;6.38;;;4.78;;
15246;SDS011;7726;48.820;9.248;2023-12-28T10:07:56;6.13;;;5.00;;
15246;SDS011;7726;48.820;9.248;2023-12-28T10:10:24;6.13;;;4.45;;
15246;SDS011;7726;48.820;9.248;2023-12-28T10:12:51;4.97;;;4.32;;
15246;SDS011;7726;48.820;9.248;2023-12-28T10:15:19;6.38;;;4.72;;
15246;SDS011;7726;48.820;9.248;2023-12-28T10:17:46;7.38;;;4.03;;
15246;SDS011;7726;48.820;9.248;2023-12-28T10:20:13;7.88;;;5.28;;
15246;SDS011;7726;48.820;9.248;2023-12-28T10:22:41;9.10;;;5.07;;
15246;SDS011;7726;48.820;9.248;2023-12-28T10:25:08;9.20;;;4.78;;
15246;SDS011;7726;48.820;9.248;2023-12-28T10:27:39;5.85;;;4.75;;
15246;SDS011;7726;48.820;9.248;2023-12-28T10:30:07;5.53;;;4.15;;
15246;SDS011;7726;48.820;9.248;2023-12-28T10:32:35;5.45;;;3.83;;
15246;SDS011;7726;48.820;9.248;2023-12-28T10:35:02;6.00;;;3.58;;
15246;SDS011;7726;48.820;9.248;2023-12-28T10:37:30;4.78;;;3.50;;
15246;SDS011;7726;48.820;9.248;2023-12-28T10:39:59;4.03;;;3.13;;
15246;SDS011;7726;48.820;9.248;2023-12-28T10:42:28;5.30;;;3.40;;
15246;SDS011;7726;48.820;9.248;2023-12-28T10:45:02;4.07;;;3.10;;
15246;SDS011;7726;48.820;9.248;2023-12-28T10:47:31;8.13;;;3.13;;
15246;SDS011;7726;48.820;9.248;2023-12-28T10:50:00;4.55;;;3.05;;
15246;SDS011;7726;48.820;9.248;2023-12-28T10:52:30;4.25;;;3.00;;
15246;SDS011;7726;48.820;9.248;2023-12-28T10:55:00;4.82;;;2.90;;
15246;SDS011;7726;48.820;9.248;2023-12-28T10:57:32;3.05;;;2.78;;
15246;SDS011;7726;48.820;9.248;2023-12-28T11:00:03;5.45;;;3.17;;
15246;SDS011;7726;48.820;9.248;2023-12-28T11:02:33;9.90;;;3.20;;
15246;SDS011;7726;48.820;9.248;2023-12-28T11:05:03;5.20;;;3.38;;
15246;SDS011;7726;48.820;9.248;2023-12-28T11:07:31;3.38;;;2.67;;
15246;SDS011;7726;48.820;9.248;2023-12-28T11:09:59;8.20;;;3.60;;
15246;SDS011;7726;48.820;9.248;2023-12-28T11:12:29;4.80;;;3.42;;
15246;SDS011;7726;48.820;9.248;2023-12-28T11:14:57;3.90;;;2.83;;
15246;SDS011;7726;48.820;9.248;2023-12-28T11:17:26;3.65;;;2.95;;
15246;SDS011;7726;48.820;9.248;2023-12-28T11:19:54;3.85;;;3.30;;
15246;SDS011;7726;48.820;9.248;2023-12-28T11:22:22;3.00;;;2.70;;
15246;SDS011;7726;48.820;9.248;2023-12-28T11:24:51;4.65;;;3.35;;
15246;SDS011;7726;48.820;9.248;2023-12-28T11:27:19;3.85;;;3.47;;
15246;SDS011;7726;48.820;9.248;2023-12-28T11:29:47;5.80;;;2.95;;
15246;SDS011;7726;48.820;9.248;2023-12-28T11:32:14;4.38;;;3.50;;
15246;SDS011;7726;48.820;9.248;2023-12-28T11:34:43;6.07;;;3.25;;
15246;SDS011;7726;48.820;9.248;2023-12-28T11:37:12;3.20;;;2.67;;
15246;SDS011;7726;48.820;9.248;2023-12-28T11:39:43;4.93;;;2.97;;
15246;SDS011;7726;48.820;9.248;2023-12-28T11:42:11;4.25;;;2.90;;
15246;SDS011;7726;48.820;9.248;2023-12-28T11:44:38;3.63;;;3.20;;
15246;SDS011;7726;48.820;9.248;2023-12-28T11:47:12;5.25;;;3.42;;
15246;SDS011;7726;48.820;9.248;2023-12-28T11:49:40;4.70;;;3.03;;
15246;SDS011;7726;48.820;9.248;2023-12-28T11:52:09;4.68;;;2.70;;
15246;SDS011;7726;48.820;9.248;2023-12-28T11:54:37;4.50;;;3.20;;
15246;SDS011;7726;48.820;9.248;2023-12-28T11:57:04;4.43;;;3.00;;
15246;SDS011;7726;48.820;9.248;2023-12-28T11:59:31;3.58;;;2.78;;
15246;SDS011;7726;48.820;9.248;2023-12-28T12:01:59;5.22;;;2.90;;
15246;SDS011;7726;48.820;9.248;2023-12-28T12:04:27;3.45;;;2.80;;
15246;SDS011;7726;48.820;9.248;2023-12-28T12:06:54;3.13;;;2.83;;
15246;SDS011;7726;48.820;9.248;2023-12-28T12:09:25;4.10;;;3.25;;
15246;SDS011;7726;48.820;9.248;2023-12-28T12:11:52;5.53;;;3.00;;
15246;SDS011;7726;48.820;9.248;2023-12-28T12:14:19;6.00;;;3.08;;
15246;SDS011;7726;48.820;9.248;2023-12-28T12:16:45;6.85;;;2.78;;
15246;SDS011;7726;48.820;9.248;2023-12-28T12:19:12;2.90;;;2.30;;
15246;SDS011;7726;48.820;9.248;2023-12-28T12:21:40;3.08;;;2.30;;
15246;SDS011;7726;48.820;9.248;2023-12-28T12:24:07;4.10;;;2.47;;
15246;SDS011;7726;48.820;9.248;2023-12-28T12:26:35;3.25;;;2.38;;
15246;SDS011;7726;48.820;9.248;2023-12-28T12:29:03;3.83;;;2.70;;
15246;SDS011;7726;48.820;9.248;2023-12-28T12:31:32;3.97;;;2.38;;
15246;SDS011;7726;48.820;9.248;2023-12-28T12:33:59;2.63;;;2.10;;
15246;SDS011;7726;48.820;9.248;2023-12-28T12:36:26;4.13;;;2.15;;
15246;SDS011;7726;48.820;9.248;2023-12-28T12:38:53;2.97;;;2.22;;
15246;SDS011;7726;48.820;9.248;2023-12-28T12:41:20;1.95;;;1.75;;
15246;SDS011;7726;48.820;9.248;2023-12-28T12:43:49;2.75;;;1.90;;
15246;SDS011;7726;48.820;9.248;2023-12-28T12:46:16;3.20;;;2.00;;
15246;SDS011;7726;48.820;9.248;2023-12-28T12:48:53;2.22;;;1.70;;
15246;SDS011;7726;48.820;9.248;2023-12-28T12:51:20;2.00;;;1.90;;
15246;SDS011;7726;48.820;9.248;2023-12-28T12:53:48;2.40;;;1.75;;
15246;SDS011;7726;48.820;9.248;2023-12-28T12:56:15;4.03;;;2.22;;
15246;SDS011;7726;48.820;9.248;2023-12-28T12:58:43;2.38;;;1.75;;
15246;SDS011;7726;48.820;9.248;2023-12-28T13:01:11;2.58;;;1.95;;
15246;SDS011;7726;48.820;9.248;2023-12-28T13:03:39;2.92;;;1.77;;
15246;SDS011;7726;48.820;9.248;2023-12-28T13:06:06;2.00;;;1.80;;
15246;SDS011;7726;48.820;9.248;2023-12-28T13:08:34;2.55;;;1.77;;
15246;SDS011;7726;48.820;9.248;2023-12-28T13:11:01;2.78;;;1.95;;
15246;SDS011;7726;48.820;9.248;2023-12-28T13:13:31;1.75;;;1.65;;
15246;SDS011;7726;48.820;9.248;2023-12-28T13:15:59;2.38;;;1.80;;
15246;SDS011;7726;48.820;9.248;2023-12-28T13:18:27;3.95;;;2.30;;
15246;SDS011;7726;48.820;9.248;2023-12-28T13:20:54;4.13;;;2.03;;
15246;SDS011;7726;48.820;9.248;2023-12-28T13:23:22;2.03;;;1.92;;
15246;SDS011;7726;48.820;9.248;2023-12-28T13:25:49;2.50;;;1.70;;
15246;SDS011;7726;48.820;9.248;2023-12-28T13:28:16;2.53;;;2.10;;
15246;SDS011;7726;48.820;9.248;2023-12-28T13:30:43;3.13;;;2.35;;
15246;SDS011;7726;48.820;9.248;2023-12-28T13:33:10;3.17;;;2.70;;
15246;SDS011;7726;48.820;9.248;2023-12-28T13:35:39;3.70;;;2.70;;
15246;SDS011;7726;48.820;9.248;2023-12-28T13:38:06;3.20;;;2.90;;
15246;SDS011;7726;48.820;9.248;2023-12-28T13:40:33;2.63;;;2.40;;
15246;SDS011;7726;48.820;9.248;2023-12-28T13:42:59;6.88;;;3.50;;
15246;SDS011;7726;48.820;9.248;2023-12-28T13:45:27;7.15;;;3.13;;
15246;SDS011;7726;48.820;9.248;2023-12-28T13:47:54;5.65;;;3.03;;
15246;SDS011;7726;48.820;9.248;2023-12-28T13:50:21;2.65;;;2.42;;
15246;SDS011;7726;48.820;9.248;2023-12-28T13:52:49;2.78;;;2.50;;
15246;SDS011;7726;48.820;9.248;2023-12-28T13:55:17;5.25;;;3.10;;
15246;SDS011;7726;48.820;9.248;2023-12-28T13:57:44;7.18;;;3.65;;
15246;SDS011;7726;48.820;9.248;2023-12-28T14:00:11;5.38;;;3.20;;
15246;SDS011;7726;48.820;9.248;2023-12-28T14:02:39;5.10;;;3.15;;
15246;SDS011;7726;48.820;9.248;2023-12-28T14:05:06;3.20;;;2.85;;
15246;SDS011;7726;48.820;9.248;2023-12-28T14:07:33;5.88;;;3.70;;
15246;SDS011;7726;48.820;9.248;2023-12-28T14:10:02;4.13;;;3.45;;
15246;SDS011;7726;48.820;9.248;2023-12-28T14:12:29;4.88;;;3.20;;
15246;SDS011;7726;48.820;9.248;2023-12-28T14:14:56;4.07;;;3.20;;
15246;SDS011;7726;48.820;9.248;2023-12-28T14:17:23;3.67;;;2.22;;
15246;SDS011;7726;48.820;9.248;2023-12-28T14:19:51;3.85;;;2.75;;
15246;SDS011;7726;48.820;9.248;2023-12-28T14:22:18;3.30;;;2.10;;
15246;SDS011;7726;48.820;9.248;2023-12-28T14:24:45;1.52;;;1.40;;
15246;SDS011;7726;48.820;9.248;2023-12-28T14:27:15;2.35;;;1.63;;
15246;SDS011;7726;48.820;9.248;2023-12-28T14:29:42;1.95;;;1.65;;
15246;SDS011;7726;48.820;9.248;2023-12-28T14:32:10;2.55;;;1.60;;
15246;SDS011;7726;48.820;9.248;2023-12-28T14:34:38;3.03;;;1.92;;
15246;SDS011;7726;48.820;9.248;2023-12-28T14:37:05;1.70;;;1.45;;
15246;SDS011;7726;48.820;9.248;2023-12-28T14:39:33;2.40;;;2.20;;
15246;SDS011;7726;48.820;9.248;2023-12-28T14:42:00;3.65;;;3.35;;
15246;SDS011;7726;48.820;9.248;2023-12-28T14:44:30;2.20;;;2.10;;
15246;SDS011;7726;48.820;9.248;2023-12-28T14:46:57;2.50;;;1.70;;
15246;SDS011;7726;48.820;9.248;2023-12-28T14:49:24;2.45;;;1.80;;
15246;SDS011;7726;48.820;9.248;2023-12-28T14:51:51;3.03;;;2.20;;
15246;SDS011;7726;48.820;9.248;2023-12-28T14:54:19;1.98;;;1.88;;
15246;SDS011;7726;48.820;9.248;2023-12-28T14:56:46;4.47;;;2.03;;
15246;SDS011;7726;48.820;9.248;2023-12-28T14:59:13;2.13;;;1.95;;
15246;SDS011;7726;48.820;9.248;2023-12-28T15:01:42;2.47;;;2.05;;
15246;SDS011;7726;48.820;9.248;2023-12-28T15:04:09;2.63;;;1.77;;